Portada
METAR-TAF:

METAR-TAF

Aeroports :

NWS Office

Majuro, Illes Marshall

latitud: 07-05N, longitud: 171-12E, altitud: 4 m

Observació

L'informe es va fer fa 25 minuts, a les 22:53 UTC
Vent 9 kt del Est
Temperatura 26°C
Humitat 94%
Pressió 1014 hPa
Visibilitat: 22.5 km
Núvols disperses a una alçada de 1400 ft, Cumulus congestus.
Cel ennuvolat a una alçada de 4500 ft
Cel cobert a una alçada de 11000 ft
xàfecs de pluja

METAR: PKMR 292253Z 08009KT 14SM -SHRA SCT014TCU BKN045 OVC110 26/25 A2995 RMK TCU ALQDS SLP142 T02590245

Hora: 11:18 (23:18 UTC)


TAF: manca

Observacions i pronòstics meteorològics de més de 4000 aeroports (METAR i TAF).

Les estacions disponibles són els punts grocs i vermells al mapa.

Posi el ratolí al punt desitjat per veure el nom de l'estació.

Feu clic per veure les observacions i els pronòstics meteorològics.

Per canviar el mapa: feu clic els botons verds amb una creu de color negre per apropar; al botó verd amb un guió per allunyar la imatge; o en les fletxes verdes per a mapes adjacents.


METAR-TAF: